Time;durP1;ratioP1;P1;durP2;ratioP2;P2;SDS_P1;SDS_P2;PMS_P1;PMS_P2;Temp;Humidity;BMP_temperature;BMP_pressure;BME280_temperature;BME280_humidity;BME280_pressure;Samples;Min_cycle;Max_cycle;Signal;HPM_P1;HPM_P2
2021/10/01 00:01:50;;;;;;;5.30;1.20;;;;;;;;;;4938817;28;21002;-63
2021/10/01 00:04:16;;;;;;;6.80;0.93;;;;;;;;;;4955591;28;20105;-64
2021/10/01 00:06:41;;;;;;;3.22;0.82;;;;;;;;;;4938237;28;20133;-62
2021/10/01 00:09:07;;;;;;;4.32;1.25;;;;;;;;;;4954901;28;20084;-64
2021/10/01 00:11:34;;;;;;;1.52;0.60;;;;;;;;;;4938434;28;20038;-63
2021/10/01 00:13:59;;;;;;;6.07;1.35;;;;;;;;;;4921391;28;20058;-61
2021/10/01 00:16:25;;;;;;;8.00;1.50;;;;;;;;;;4953822;28;20046;-63
2021/10/01 00:18:52;;;;;;;5.35;1.00;;;;;;;;;;4935397;28;20369;-64
2021/10/01 00:21:17;;;;;;;1.63;0.80;;;;;;;;;;4921358;28;20096;-62
2021/10/01 00:23:45;;;;;;;3.92;1.15;;;;;;;;;;4931029;28;20045;-63
2021/10/01 00:26:11;;;;;;;6.43;1.10;;;;;;;;;;4953263;28;20042;-63
2021/10/01 00:28:41;;;;;;;5.05;0.90;;;;;;;;;;4937208;28;20046;-63
2021/10/01 00:31:07;;;;;;;7.63;1.10;;;;;;;;;;4953432;28;20537;-62
2021/10/01 00:33:33;;;;;;;3.45;0.90;;;;;;;;;;4953853;28;20045;-63
2021/10/01 00:36:00;;;;;;;1.80;0.90;;;;;;;;;;4971151;28;20565;-63
2021/10/01 00:38:31;;;;;;;3.88;0.95;;;;;;;;;;4938222;28;20038;-64
2021/10/01 00:40:57;;;;;;;4.70;0.80;;;;;;;;;;4921330;28;20096;-64
2021/10/01 00:43:25;;;;;;;1.40;0.75;;;;;;;;;;4920673;28;20609;-62
2021/10/01 00:45:50;;;;;;;4.93;1.17;;;;;;;;;;4966659;28;20448;-62
2021/10/01 00:48:18;;;;;;;3.10;1.20;;;;;;;;;;4919658;28;20042;-62
2021/10/01 00:50:47;;;;;;;8.05;1.50;;;;;;;;;;4936087;28;20046;-63
2021/10/01 00:53:12;;;;;;;6.18;1.52;;;;;;;;;;4934734;28;20042;-61
2021/10/01 00:55:40;;;;;;;8.18;1.70;;;;;;;;;;4935157;28;20038;-61
2021/10/01 00:58:06;;;;;;;12.75;1.80;;;;;;;;;;4918822;28;20045;-62
2021/10/01 01:00:33;;;;;;;4.57;1.00;;;;;;;;;;4951126;28;20081;-62
2021/10/01 01:03:03;;;;;;;7.20;1.33;;;;;;;;;;4934516;28;20046;-61
2021/10/01 01:05:35;;;;;;;7.72;1.67;;;;;;;;;;4968182;28;20117;-63
2021/10/01 01:08:04;;;;;;;8.05;1.63;;;;;;;;;;4965636;28;20124;-64
2021/10/01 01:10:41;;;;;;;14.98;1.30;;;;;;;;;;4952775;28;20054;-62
2021/10/01 01:13:35;;;;;;;6.15;1.55;;;;;;;;;;4965991;28;20113;-62
2021/10/01 01:16:09;;;;;;;4.53;1.15;;;;;;;;;;4965029;28;20061;-63
2021/10/01 01:18:42;;;;;;;6.78;1.75;;;;;;;;;;4953246;28;20034;-64
2021/10/01 01:21:17;;;;;;;11.63;1.25;;;;;;;;;;4965843;28;20035;-64
2021/10/01 01:23:42;;;;;;;6.95;1.30;;;;;;;;;;4950025;28;20202;-62
2021/10/01 01:26:08;;;;;;;8.07;1.58;;;;;;;;;;4952677;28;20034;-62
2021/10/01 01:28:51;;;;;;;8.07;1.48;;;;;;;;;;4933560;28;20049;-63
2021/10/01 01:31:38;;;;;;;2.20;0.82;;;;;;;;;;4963666;28;20061;-62
2021/10/01 01:34:03;;;;;;;10.38;1.95;;;;;;;;;;4951348;28;20038;-64
2021/10/01 01:36:29;;;;;;;7.72;1.13;;;;;;;;;;4967546;28;20164;-62
2021/10/01 01:38:56;;;;;;;4.55;0.90;;;;;;;;;;4951535;28;20022;-63
2021/10/01 01:41:25;;;;;;;5.78;1.55;;;;;;;;;;4934353;28;20030;-64
2021/10/01 01:43:52;;;;;;;6.47;1.40;;;;;;;;;;4968439;28;20395;-62
2021/10/01 01:46:18;;;;;;;9.15;1.30;;;;;;;;;;4931709;28;20105;-63
2021/10/01 01:48:44;;;;;;;7.70;1.40;;;;;;;;;;4949754;28;20042;-62
2021/10/01 01:51:10;;;;;;;4.95;1.30;;;;;;;;;;4963875;28;20053;-63
2021/10/01 01:53:35;;;;;;;6.22;1.15;;;;;;;;;;4947150;28;20532;-63
2021/10/01 01:56:01;;;;;;;8.35;1.10;;;;;;;;;;4933562;28;20042;-62
2021/10/01 01:58:28;;;;;;;5.60;0.98;;;;;;;;;;4933444;28;20246;-62
2021/10/01 02:00:56;;;;;;;3.97;1.40;;;;;;;;;;4955689;28;20038;-63
2021/10/01 02:03:22;;;;;;;4.15;1.38;;;;;;;;;;4931877;28;20030;-63
2021/10/01 02:05:54;;;;;;;6.63;1.23;;;;;;;;;;4951799;28;20037;-63
2021/10/01 02:08:20;;;;;;;4.05;1.88;;;;;;;;;;4950414;28;20186;-62
2021/10/01 02:10:47;;;;;;;3.72;0.70;;;;;;;;;;4964559;28;20046;-63
2021/10/01 02:13:17;;;;;;;5.05;1.10;;;;;;;;;;4949020;28;20093;-64
2021/10/01 02:15:44;;;;;;;12.95;1.55;;;;;;;;;;4947096;28;20117;-63
2021/10/01 02:18:10;;;;;;;3.10;0.88;;;;;;;;;;4968284;28;20049;-62
2021/10/01 02:20:39;;;;;;;7.55;1.23;;;;;;;;;;4933295;28;20045;-63
2021/10/01 02:23:05;;;;;;;6.15;1.27;;;;;;;;;;4927664;28;20041;-64
2021/10/01 02:28:15;;;;;;;;;;;;;;;;;;4950132;28;20084;-64
2021/10/01 02:30:44;;;;;;;9.07;1.55;;;;;;;;;;4950977;28;20004;-63
2021/10/01 02:33:30;;;;;;;3.78;1.20;;;;;;;;;;4951487;28;20042;-63
2021/10/01 02:35:58;;;;;;;3.83;1.05;;;;;;;;;;4950762;28;20410;-62
2021/10/01 02:38:24;;;;;;;2.75;1.05;;;;;;;;;;4949453;28;20034;-62
2021/10/01 02:40:50;;;;;;;4.57;0.82;;;;;;;;;;4951107;28;20026;-63
2021/10/01 02:43:18;;;;;;;10.98;1.15;;;;;;;;;;4965892;28;20470;-64
2021/10/01 02:45:44;;;;;;;6.95;1.10;;;;;;;;;;4949781;28;20913;-63
2021/10/01 02:48:09;;;;;;;3.40;1.15;;;;;;;;;;4935345;28;20053;-66
2021/10/01 02:50:38;;;;;;;1.98;1.08;;;;;;;;;;4920219;28;20050;-63
2021/10/01 02:53:18;;;;;;;6.32;1.45;;;;;;;;;;4950366;28;20039;-62
2021/10/01 02:55:58;;;;;;;12.98;1.25;;;;;;;;;;4947416;28;20042;-65
2021/10/01 02:58:31;;;;;;;10.90;1.45;;;;;;;;;;4945262;28;20038;-61
2021/10/01 03:00:57;;;;;;;2.60;1.17;;;;;;;;;;4934429;28;20919;-63
2021/10/01 03:03:27;;;;;;;2.03;0.80;;;;;;;;;;4949562;28;20038;-61
2021/10/01 03:05:57;;;;;;;7.88;1.42;;;;;;;;;;4934853;28;20038;-66
2021/10/01 03:08:26;;;;;;;3.13;1.13;;;;;;;;;;4940458;28;20038;-63
2021/10/01 03:10:57;;;;;;;1.05;0.70;;;;;;;;;;4933999;28;20494;-63
2021/10/01 03:13:23;;;;;;;11.77;1.42;;;;;;;;;;4953214;28;20038;-63
2021/10/01 03:15:49;;;;;;;9.13;1.23;;;;;;;;;;4953765;28;20478;-62
2021/10/01 03:18:14;;;;;;;6.25;1.13;;;;;;;;;;4938424;28;20133;-62
2021/10/01 03:20:43;;;;;;;4.07;1.10;;;;;;;;;;4972887;28;20034;-64
2021/10/01 03:23:10;;;;;;;10.68;1.25;;;;;;;;;;4955062;28;20092;-64
2021/10/01 03:25:37;;;;;;;8.10;1.40;;;;;;;;;;4950589;28;20124;-64
2021/10/01 03:28:03;;;;;;;3.63;1.40;;;;;;;;;;4951339;28;20053;-65
2021/10/01 03:30:31;;;;;;;4.10;1.48;;;;;;;;;;4951165;28;20150;-64
2021/10/01 03:33:00;;;;;;;5.80;1.40;;;;;;;;;;4954863;28;20185;-64
2021/10/01 03:35:25;;;;;;;7.18;1.17;;;;;;;;;;4969673;28;20556;-62
2021/10/01 03:37:53;;;;;;;7.18;1.35;;;;;;;;;;4971452;28;20064;-63
2021/10/01 03:40:20;;;;;;;6.13;1.25;;;;;;;;;;4936169;28;20121;-62
2021/10/01 03:42:45;;;;;;;6.00;1.25;;;;;;;;;;4936735;28;20059;-62
2021/10/01 03:45:13;;;;;;;5.63;1.58;;;;;;;;;;4937769;28;20493;-64
2021/10/01 03:47:39;;;;;;;3.63;1.40;;;;;;;;;;4937410;28;20502;-63
2021/10/01 03:50:05;;;;;;;2.45;0.90;;;;;;;;;;4967976;28;20090;-63
2021/10/01 03:52:34;;;;;;;9.82;1.42;;;;;;;;;;4950151;28;20051;-62
2021/10/01 03:54:59;;;;;;;2.63;1.05;;;;;;;;;;4953171;28;20054;-62
2021/10/01 03:57:25;;;;;;;5.57;1.58;;;;;;;;;;4922252;28;20222;-63
2021/10/01 03:59:54;;;;;;;3.88;1.25;;;;;;;;;;4954524;28;20073;-62
2021/10/01 04:02:20;;;;;;;6.50;1.20;;;;;;;;;;4937500;28;20498;-62
2021/10/01 04:04:45;;;;;;;8.98;1.40;;;;;;;;;;4950866;28;20042;-63
2021/10/01 04:07:13;;;;;;;4.50;1.20;;;;;;;;;;4937754;28;20034;-62
2021/10/01 04:09:39;;;;;;;4.40;0.80;;;;;;;;;;4953300;28;20034;-62
2021/10/01 04:12:07;;;;;;;3.10;1.20;;;;;;;;;;4936488;28;20050;-63
2021/10/01 04:14:35;;;;;;;4.68;1.02;;;;;;;;;;4936987;28;20042;-63
2021/10/01 04:17:00;;;;;;;3.95;1.17;;;;;;;;;;4951510;28;20034;-62
2021/10/01 04:19:28;;;;;;;2.13;1.10;;;;;;;;;;4937921;28;20935;-63
2021/10/01 04:21:54;;;;;;;3.72;1.73;;;;;;;;;;4954008;28;20133;-63
2021/10/01 04:24:19;;;;;;;2.58;0.90;;;;;;;;;;4919054;28;20104;-62
2021/10/01 04:26:47;;;;;;;1.45;0.90;;;;;;;;;;4940605;28;20125;-63
2021/10/01 04:29:15;;;;;;;10.27;1.50;;;;;;;;;;4919488;28;20058;-63
2021/10/01 04:31:40;;;;;;;3.13;1.02;;;;;;;;;;4949738;28;20077;-62
2021/10/01 04:34:08;;;;;;;3.83;1.10;;;;;;;;;;4950974;28;20046;-63
2021/10/01 04:36:35;;;;;;;3.25;0.70;;;;;;;;;;4951914;28;20386;-63
2021/10/01 04:39:03;;;;;;;6.05;1.15;;;;;;;;;;4966866;28;20033;-63
2021/10/01 04:41:31;;;;;;;2.10;0.65;;;;;;;;;;4951803;28;20084;-63
2021/10/01 04:43:57;;;;;;;9.18;1.00;;;;;;;;;;4950566;28;20160;-62
2021/10/01 04:46:23;;;;;;;6.35;1.00;;;;;;;;;;4953061;28;20034;-62
2021/10/01 04:48:51;;;;;;;3.88;0.90;;;;;;;;;;4966457;28;20034;-63
2021/10/01 04:51:17;;;;;;;5.65;1.00;;;;;;;;;;4935696;28;20042;-63
2021/10/01 04:53:45;;;;;;;8.10;0.95;;;;;;;;;;4953247;28;20038;-64
2021/10/01 04:56:11;;;;;;;4.80;1.35;;;;;;;;;;4949858;28;20390;-63
2021/10/01 04:58:39;;;;;;;2.25;1.23;;;;;;;;;;4935023;28;20166;-63
2021/10/01 05:01:05;;;;;;;2.83;0.82;;;;;;;;;;4920037;28;20150;-63
2021/10/01 05:03:35;;;;;;;9.15;1.17;;;;;;;;;;4951340;28;20121;-63
2021/10/01 05:06:03;;;;;;;3.50;0.90;;;;;;;;;;4938655;28;20045;-63
2021/10/01 05:08:28;;;;;;;3.50;1.05;;;;;;;;;;4936544;28;20157;-63
2021/10/01 05:10:56;;;;;;;5.78;1.20;;;;;;;;;;4952523;28;22203;-64
2021/10/01 05:13:22;;;;;;;8.55;1.48;;;;;;;;;;4935806;28;20044;-63
2021/10/01 05:15:48;;;;;;;6.32;1.08;;;;;;;;;;4933478;28;20034;-63
2021/10/01 05:18:15;;;;;;;1.48;0.93;;;;;;;;;;4955862;28;20053;-63
2021/10/01 05:20:41;;;;;;;4.82;0.98;;;;;;;;;;4951992;28;20041;-64
2021/10/01 05:23:07;;;;;;;7.32;0.98;;;;;;;;;;4951674;28;20038;-64
2021/10/01 05:25:33;;;;;;;6.35;0.93;;;;;;;;;;4968848;28;20174;-63
2021/10/01 05:27:58;;;;;;;5.75;1.20;;;;;;;;;;4950069;28;20034;-64
2021/10/01 05:30:24;;;;;;;2.15;1.17;;;;;;;;;;4932748;28;20050;-62
2021/10/01 05:32:49;;;;;;;4.50;0.93;;;;;;;;;;4952388;28;20034;-63
2021/10/01 05:35:15;;;;;;;5.35;1.10;;;;;;;;;;4934147;28;20118;-63
2021/10/01 05:37:40;;;;;;;6.85;1.30;;;;;;;;;;4918622;28;20034;-63
2021/10/01 05:40:08;;;;;;;4.00;0.95;;;;;;;;;;4951722;28;20089;-62
2021/10/01 05:42:34;;;;;;;4.90;0.80;;;;;;;;;;4936135;28;20112;-63
2021/10/01 05:45:00;;;;;;;5.32;1.30;;;;;;;;;;4952361;28;20617;-63
2021/10/01 05:47:28;;;;;;;2.95;1.20;;;;;;;;;;4967602;28;20112;-62
2021/10/01 05:50:01;;;;;;;3.92;0.95;;;;;;;;;;4947843;28;20126;-63
2021/10/01 05:54:58;;;;;;;5.13;1.20;;;;;;;;;;4950914;28;20038;-63
2021/10/01 05:57:23;;;;;;;3.83;0.82;;;;;;;;;;4934722;28;20065;-62
2021/10/01 05:59:49;;;;;;;4.97;1.20;;;;;;;;;;4963831;28;20042;-62
2021/10/01 06:02:16;;;;;;;1.63;0.68;;;;;;;;;;4935897;28;22089;-63
2021/10/01 06:04:42;;;;;;;2.38;0.70;;;;;;;;;;4915626;28;20038;-62
2021/10/01 06:07:17;;;;;;;4.07;0.75;;;;;;;;;;4935797;28;20139;-62
2021/10/01 06:09:43;;;;;;;2.72;0.95;;;;;;;;;;4947654;28;20049;-63
2021/10/01 06:12:10;;;;;;;4.50;0.90;;;;;;;;;;4930446;28;20053;-62
2021/10/01 06:14:38;;;;;;;11.50;1.33;;;;;;;;;;4947248;28;20034;-64
2021/10/01 06:17:05;;;;;;;3.22;0.93;;;;;;;;;;4968575;28;20087;-62
2021/10/01 06:19:33;;;;;;;5.07;1.20;;;;;;;;;;4935095;28;20608;-62
2021/10/01 06:22:03;;;;;;;1.30;0.80;;;;;;;;;;4948751;28;20765;-62
2021/10/01 06:24:29;;;;;;;5.20;0.95;;;;;;;;;;4946926;28;20077;-61
2021/10/01 06:27:00;;;;;;;3.75;0.80;;;;;;;;;;4935503;28;20111;-63
2021/10/01 06:29:28;;;;;;;4.45;0.80;;;;;;;;;;4968011;28;20165;-60
2021/10/01 06:31:54;;;;;;;6.30;1.13;;;;;;;;;;4932687;28;20145;-62
2021/10/01 06:34:22;;;;;;;4.88;0.93;;;;;;;;;;4949490;28;20042;-63
2021/10/01 06:36:47;;;;;;;3.30;0.80;;;;;;;;;;4951186;28;20026;-63
2021/10/01 06:39:14;;;;;;;4.20;1.05;;;;;;;;;;4932104;28;20039;-62
2021/10/01 06:41:41;;;;;;;1.85;0.63;;;;;;;;;;4953771;28;20098;-63
2021/10/01 06:44:07;;;;;;;5.88;1.00;;;;;;;;;;4951384;28;20142;-63
2021/10/01 06:49:22;;;;;;;5.07;1.17;;;;;;;;;;4968258;28;20061;-63
2021/10/01 07:36:13;;;;;;;2.88;0.70;;;;;;;;;;4948737;28;20030;-64
2021/10/01 08:19:46;;;;;;;3.15;0.82;;;;;;;;;;4953321;28;20066;-62
2021/10/01 08:22:14;;;;;;;5.13;0.70;;;;;;;;;;4928880;28;20115;-63
2021/10/01 08:24:41;;;;;;;5.15;1.20;;;;;;;;;;4949696;28;20642;-63
2021/10/01 08:27:07;;;;;;;2.42;1.00;;;;;;;;;;4952685;28;20030;-63
2021/10/01 08:29:33;;;;;;;7.55;0.88;;;;;;;;;;4950126;28;20054;-63
2021/10/01 08:32:03;;;;;;;8.20;1.15;;;;;;;;;;4935929;28;20169;-63
2021/10/01 08:34:36;;;;;;;3.78;0.60;;;;;;;;;;4952192;28;20168;-63
2021/10/01 08:37:04;;;;;;;4.85;1.15;;;;;;;;;;4969018;28;20053;-62
2021/10/01 08:39:31;;;;;;;0.90;0.50;;;;;;;;;;4952536;28;20034;-64
2021/10/01 08:42:00;;;;;;;7.40;0.80;;;;;;;;;;4932555;28;20524;-63
2021/10/01 08:44:28;;;;;;;1.95;0.55;;;;;;;;;;4938062;28;20042;-64
2021/10/01 08:47:04;;;;;;;6.25;0.70;;;;;;;;;;4969784;28;20164;-62
2021/10/01 08:49:31;;;;;;;3.00;0.77;;;;;;;;;;4953175;28;20041;-63
2021/10/01 08:51:57;;;;;;;6.70;0.88;;;;;;;;;;4935565;28;20030;-61
2021/10/01 08:54:26;;;;;;;2.53;0.77;;;;;;;;;;4919272;28;20042;-65
2021/10/01 08:56:58;;;;;;;1.40;0.75;;;;;;;;;;4937379;28;20046;-64
2021/10/01 08:59:26;;;;;;;2.53;0.77;;;;;;;;;;4936405;28;20047;-63
2021/10/01 09:01:56;;;;;;;1.90;0.45;;;;;;;;;;4934400;28;20073;-63
2021/10/01 09:04:24;;;;;;;3.33;0.70;;;;;;;;;;4953063;28;20050;-65
2021/10/01 09:06:54;;;;;;;3.03;0.77;;;;;;;;;;4968624;28;20026;-63
2021/10/01 09:09:33;;;;;;;3.30;0.70;;;;;;;;;;4936465;28;20042;-64
2021/10/01 09:12:02;;;;;;;3.90;0.90;;;;;;;;;;4969566;28;20042;-63
2021/10/01 09:14:27;;;;;;;3.20;0.82;;;;;;;;;;4935447;28;20030;-63
2021/10/01 09:16:53;;;;;;;9.30;1.13;;;;;;;;;;4935851;28;20026;-63
2021/10/01 09:19:19;;;;;;;4.95;0.82;;;;;;;;;;4950967;28;20030;-64
2021/10/01 09:21:48;;;;;;;4.90;1.02;;;;;;;;;;4935975;28;20619;-62
2021/10/01 09:24:15;;;;;;;3.72;0.73;;;;;;;;;;4934572;28;20042;-62
2021/10/01 09:26:55;;;;;;;2.75;0.57;;;;;;;;;;4935699;28;20081;-64
2021/10/01 09:29:31;;;;;;;6.90;0.80;;;;;;;;;;4968698;28;20038;-64
2021/10/01 09:31:58;;;;;;;4.60;0.93;;;;;;;;;;4947891;28;20047;-63
2021/10/01 09:34:23;;;;;;;4.00;0.80;;;;;;;;;;4948972;28;20037;-63
2021/10/01 09:37:00;;;;;;;4.22;0.45;;;;;;;;;;4933629;28;20039;-64
2021/10/01 09:39:27;;;;;;;2.30;0.45;;;;;;;;;;4935560;28;20094;-65
2021/10/01 09:41:57;;;;;;;2.08;0.88;;;;;;;;;;4933180;28;20113;-62
2021/10/01 09:44:31;;;;;;;2.30;0.52;;;;;;;;;;4952403;28;20034;-63
2021/10/01 09:46:57;;;;;;;2.00;0.65;;;;;;;;;;4965977;28;20039;-63
2021/10/01 09:49:33;;;;;;;3.53;0.60;;;;;;;;;;4935242;28;20035;-62
2021/10/01 09:52:03;;;;;;;2.53;0.70;;;;;;;;;;4950617;28;20026;-65
2021/10/01 09:54:29;;;;;;;4.82;0.80;;;;;;;;;;4967941;28;20026;-63
2021/10/01 09:57:01;;;;;;;2.08;0.73;;;;;;;;;;4950118;28;20034;-63
2021/10/01 09:59:27;;;;;;;2.05;0.82;;;;;;;;;;4932765;28;20089;-64
2021/10/01 10:02:07;;;;;;;4.10;0.70;;;;;;;;;;4951788;28;20654;-63
2021/10/01 10:04:41;;;;;;;4.35;0.75;;;;;;;;;;4948330;28;20046;-63
2021/10/01 10:07:17;;;;;;;3.15;0.80;;;;;;;;;;4952292;28;20113;-63
2021/10/01 10:09:47;;;;;;;3.05;0.57;;;;;;;;;;4951774;28;20124;-62
2021/10/01 10:12:14;;;;;;;1.10;0.73;;;;;;;;;;4934365;28;20022;-63
2021/10/01 10:14:46;;;;;;;3.38;0.95;;;;;;;;;;4935927;28;20189;-62
2021/10/01 10:17:13;;;;;;;2.97;0.60;;;;;;;;;;4951154;28;20167;-61
2021/10/01 10:19:42;;;;;;;5.93;1.38;;;;;;;;;;4949725;28;20034;-63
2021/10/01 10:22:07;;;;;;;5.60;1.17;;;;;;;;;;4949818;28;20181;-62
2021/10/01 10:24:35;;;;;;;9.57;0.80;;;;;;;;;;4950141;28;20034;-63
2021/10/01 10:27:00;;;;;;;1.02;0.52;;;;;;;;;;4949157;28;20905;-63
2021/10/01 10:29:28;;;;;;;2.42;0.65;;;;;;;;;;4938757;28;20043;-61
2021/10/01 10:31:54;;;;;;;1.52;0.68;;;;;;;;;;4930125;28;20231;-61
2021/10/01 10:34:23;;;;;;;4.22;0.60;;;;;;;;;;4903659;28;20041;-64
2021/10/01 10:36:49;;;;;;;7.88;1.05;;;;;;;;;;4930200;28;20815;-63
2021/10/01 10:39:19;;;;;;;8.05;1.05;;;;;;;;;;4914588;28;20031;-64
2021/10/01 10:41:48;;;;;;;3.95;0.70;;;;;;;;;;4913454;28;20659;-63
2021/10/01 10:44:14;;;;;;;3.30;0.63;;;;;;;;;;4914268;28;20079;-64
2021/10/01 10:46:46;;;;;;;5.22;0.88;;;;;;;;;;4929509;28;20039;-64
2021/10/01 10:49:14;;;;;;;2.72;0.90;;;;;;;;;;4924250;28;20121;-64
2021/10/01 10:51:59;;;;;;;3.60;0.70;;;;;;;;;;4913565;28;20048;-64
2021/10/01 10:54:26;;;;;;;3.05;0.73;;;;;;;;;;4930700;28;20070;-64
2021/10/01 10:57:10;;;;;;;3.15;0.70;;;;;;;;;;4906879;28;20042;-63
2021/10/01 10:59:35;;;;;;;3.92;1.08;;;;;;;;;;4908540;28;20105;-64
2021/10/01 11:05:21;;;;;;;2.45;0.90;;;;;;;;;;4894729;28;20093;-61
2021/10/01 11:07:49;;;;;;;;;;;;;;;;;;4930935;28;20047;-63
2021/10/01 11:10:33;;;;;;;3.13;0.47;;;;;;;;;;4928906;28;19918;-63
2021/10/01 11:13:17;;;;;;;2.77;0.73;;;;;;;;;;4908887;28;20038;-63
2021/10/01 11:16:03;;;;;;;2.00;0.68;;;;;;;;;;4912596;28;20027;-64
2021/10/01 11:18:29;;;;;;;2.25;0.88;;;;;;;;;;4931602;28;20046;-65
2021/10/01 11:20:55;;;;;;;3.28;0.95;;;;;;;;;;4912718;28;20747;-64
2021/10/01 11:23:20;;;;;;;3.67;0.90;;;;;;;;;;4926867;28;20129;-65
2021/10/01 11:25:49;;;;;;;4.10;0.73;;;;;;;;;;4898074;28;20644;-65
2021/10/01 11:28:14;;;;;;;3.63;0.98;;;;;;;;;;4924780;28;20995;-65
2021/10/01 11:30:52;;;;;;;4.75;0.90;;;;;;;;;;4894446;28;20055;-64
2021/10/01 11:33:19;;;;;;;5.65;0.70;;;;;;;;;;4915283;28;20039;-65
2021/10/01 11:35:48;;;;;;;3.17;0.75;;;;;;;;;;4922802;28;20043;-64
2021/10/01 11:38:24;;;;;;;3.88;0.90;;;;;;;;;;4934595;28;20042;-62
2021/10/01 11:41:01;;;;;;;2.97;0.70;;;;;;;;;;4916122;28;20097;-65
2021/10/01 11:43:27;;;;;;;4.00;0.65;;;;;;;;;;4931310;28;20170;-64
2021/10/01 11:45:53;;;;;;;2.10;0.52;;;;;;;;;;4915993;28;20480;-64
2021/10/01 11:48:19;;;;;;;9.57;1.23;;;;;;;;;;4951189;28;20085;-66
2021/10/01 11:50:48;;;;;;;1.08;0.60;;;;;;;;;;4931964;28;20039;-64
2021/10/01 11:53:17;;;;;;;5.53;0.90;;;;;;;;;;4951306;28;20039;-62
2021/10/01 11:55:51;;;;;;;2.45;0.77;;;;;;;;;;4950108;28;20030;-64
2021/10/01 11:58:17;;;;;;;2.97;0.70;;;;;;;;;;4935687;28;20679;-61
2021/10/01 12:00:42;;;;;;;3.40;0.70;;;;;;;;;;4915141;28;20123;-62
2021/10/01 12:03:11;;;;;;;4.13;0.75;;;;;;;;;;4931530;28;20047;-66
2021/10/01 12:05:40;;;;;;;1.88;0.73;;;;;;;;;;4928262;28;20395;-64
2021/10/01 12:08:10;;;;;;;2.70;0.63;;;;;;;;;;4908926;28;22017;-63
2021/10/01 12:10:37;;;;;;;5.20;0.90;;;;;;;;;;4915441;28;22146;-62
2021/10/01 12:13:10;;;;;;;4.28;1.08;;;;;;;;;;4914602;28;20030;-63
2021/10/01 12:15:38;;;;;;;3.40;0.52;;;;;;;;;;4910203;28;20892;-63
2021/10/01 12:18:07;;;;;;;2.50;0.70;;;;;;;;;;4931263;28;20038;-65
2021/10/01 12:20:48;;;;;;;3.83;1.13;;;;;;;;;;4915605;28;20383;-62
2021/10/01 12:23:31;;;;;;;2.42;0.85;;;;;;;;;;4932929;28;21121;-64
2021/10/01 12:26:13;;;;;;;4.05;1.00;;;;;;;;;;4934092;28;20058;-64
2021/10/01 12:28:41;;;;;;;5.45;1.40;;;;;;;;;;4945636;28;21239;-62
2021/10/01 12:31:09;;;;;;;7.68;1.33;;;;;;;;;;4935758;28;20129;-59
2021/10/01 12:33:35;;;;;;;14.43;1.45;;;;;;;;;;4935468;28;20129;-59
2021/10/01 12:36:01;;;;;;;15.23;1.50;;;;;;;;;;4947627;28;20080;-58
2021/10/01 12:38:27;;;;;;;5.97;1.50;;;;;;;;;;4946880;28;20038;-58
2021/10/01 12:41:08;;;;;;;4.63;1.48;;;;;;;;;;4934982;28;20200;-57
2021/10/01 12:43:47;;;;;;;5.80;1.23;;;;;;;;;;4969274;28;20070;-58
2021/10/01 12:46:31;;;;;;;2.55;1.33;;;;;;;;;;4949694;28;20039;-57
2021/10/01 12:49:29;;;;;;;5.35;1.33;;;;;;;;;;4953109;28;22077;-57
2021/10/01 12:51:58;;;;;;;8.00;2.00;;;;;;;;;;4876445;28;20046;-57
2021/10/01 12:54:27;;;;;;;8.88;1.50;;;;;;;;;;4937189;28;20034;-58
2021/10/01 12:57:12;;;;;;;5.40;1.65;;;;;;;;;;4949329;28;20046;-59
2021/10/01 12:59:48;;;;;;;5.43;1.55;;;;;;;;;;4969186;28;20037;-58
2021/10/01 13:02:16;;;;;;;4.72;1.95;;;;;;;;;;4970026;28;20034;-58
2021/10/01 13:04:45;;;;;;;10.18;1.95;;;;;;;;;;4952997;28;20037;-58
2021/10/01 13:07:31;;;;;;;5.60;1.50;;;;;;;;;;4950352;28;20174;-58
2021/10/01 13:10:00;;;;;;;5.50;1.80;;;;;;;;;;4953327;28;20413;-58
2021/10/01 13:12:37;;;;;;;6.35;1.88;;;;;;;;;;4965614;28;20149;-58
2021/10/01 13:15:10;;;;;;;8.93;1.63;;;;;;;;;;4967268;28;20065;-59
2021/10/01 13:17:43;;;;;;;2.85;1.67;;;;;;;;;;4953867;28;20512;-59
2021/10/01 13:20:13;;;;;;;3.55;1.48;;;;;;;;;;4949484;28;20034;-58
2021/10/01 13:22:57;;;;;;;6.18;2.50;;;;;;;;;;4950669;28;20089;-58
2021/10/01 13:25:23;;;;;;;6.63;2.08;;;;;;;;;;4951854;28;21955;-57
2021/10/01 13:27:52;;;;;;;5.97;1.80;;;;;;;;;;4951044;28;20026;-59
2021/10/01 13:30:20;;;;;;;7.03;2.35;;;;;;;;;;4914319;28;20050;-59
2021/10/01 13:32:46;;;;;;;5.63;2.17;;;;;;;;;;4930690;28;20037;-59
2021/10/01 13:35:15;;;;;;;7.53;2.35;;;;;;;;;;4915548;28;20027;-59
2021/10/01 13:37:45;;;;;;;9.80;2.17;;;;;;;;;;4912718;28;20177;-60
2021/10/01 13:40:11;;;;;;;10.85;2.40;;;;;;;;;;4927857;28;20764;-59
2021/10/01 13:42:37;;;;;;;12.25;2.47;;;;;;;;;;4914532;28;20062;-60
2021/10/01 13:45:24;;;;;;;9.48;2.45;;;;;;;;;;4914545;28;20085;-60
2021/10/01 13:48:26;;;;;;;6.55;2.17;;;;;;;;;;4946216;28;20038;-59
2021/10/01 13:50:54;;;;;;;6.13;2.30;;;;;;;;;;4910020;28;20043;-59
2021/10/01 13:53:22;;;;;;;9.05;2.42;;;;;;;;;;4943815;28;20468;-60
2021/10/01 13:55:50;;;;;;;5.63;2.70;;;;;;;;;;4924774;28;20059;-59
2021/10/01 13:58:18;;;;;;;10.00;3.00;;;;;;;;;;4913941;28;20054;-58
2021/10/01 14:00:44;;;;;;;5.30;2.83;;;;;;;;;;4929864;28;20136;-59
2021/10/01 14:03:10;;;;;;;6.95;2.47;;;;;;;;;;4927877;28;20063;-60
2021/10/01 14:05:35;;;;;;;8.35;2.35;;;;;;;;;;4927996;28;20394;-59
2021/10/01 14:08:06;;;;;;;10.57;2.80;;;;;;;;;;4946228;28;20851;-59
2021/10/01 14:10:36;;;;;;;7.90;2.42;;;;;;;;;;4948742;28;20066;-59
2021/10/01 14:13:06;;;;;;;7.88;2.38;;;;;;;;;;4926694;28;20490;-59
2021/10/01 14:15:34;;;;;;;7.25;2.25;;;;;;;;;;4929501;28;20050;-59
2021/10/01 14:18:02;;;;;;;7.45;2.30;;;;;;;;;;4946274;28;20691;-60
2021/10/01 14:20:31;;;;;;;7.47;2.20;;;;;;;;;;4929874;28;20069;-58
2021/10/01 14:22:58;;;;;;;7.47;2.38;;;;;;;;;;4914506;28;20038;-58
2021/10/01 14:25:27;;;;;;;5.53;2.38;;;;;;;;;;4924395;28;20035;-59
2021/10/01 14:27:59;;;;;;;7.88;1.85;;;;;;;;;;4929427;28;20034;-59
2021/10/01 14:30:28;;;;;;;5.88;2.63;;;;;;;;;;4908466;28;20085;-60
2021/10/01 14:32:56;;;;;;;4.72;1.98;;;;;;;;;;4945378;28;20165;-61
2021/10/01 14:35:27;;;;;;;5.13;2.55;;;;;;;;;;4933388;28;21091;-60
2021/10/01 14:37:55;;;;;;;6.65;2.20;;;;;;;;;;4930800;28;20035;-60
2021/10/01 14:40:25;;;;;;;10.85;2.72;;;;;;;;;;4933034;28;20050;-60
2021/10/01 14:42:50;;;;;;;7.43;1.92;;;;;;;;;;4930243;28;20031;-59
2021/10/01 14:45:16;;;;;;;5.38;2.40;;;;;;;;;;4929821;28;20041;-60
2021/10/01 14:47:41;;;;;;;5.07;1.98;;;;;;;;;;4913511;28;20129;-62
2021/10/01 14:50:09;;;;;;;3.40;2.03;;;;;;;;;;4928940;28;20058;-60
2021/10/01 14:52:35;;;;;;;2.92;2.20;;;;;;;;;;4927181;28;20670;-60
2021/10/01 14:55:00;;;;;;;6.68;2.33;;;;;;;;;;4924790;28;20054;-60
2021/10/01 14:57:26;;;;;;;7.70;2.17;;;;;;;;;;4927308;28;20045;-60
2021/10/01 14:59:51;;;;;;;8.95;2.45;;;;;;;;;;4930057;28;20035;-61
2021/10/01 15:02:17;;;;;;;6.22;2.15;;;;;;;;;;4929507;28;20153;-60
2021/10/01 15:04:46;;;;;;;8.55;2.85;;;;;;;;;;4928137;28;20042;-61
2021/10/01 15:07:14;;;;;;;9.93;2.30;;;;;;;;;;4925982;28;20399;-61
2021/10/01 15:09:40;;;;;;;8.88;2.10;;;;;;;;;;4931546;28;20653;-61
2021/10/01 15:12:09;;;;;;;4.82;2.17;;;;;;;;;;4931709;28;20398;-62
2021/10/01 15:14:34;;;;;;;6.90;1.90;;;;;;;;;;4947795;28;20042;-61
2021/10/01 15:17:04;;;;;;;6.32;2.05;;;;;;;;;;4918891;28;20490;-61
2021/10/01 15:19:30;;;;;;;8.30;2.08;;;;;;;;;;4907987;28;20129;-63
2021/10/01 15:22:00;;;;;;;3.35;1.67;;;;;;;;;;4930803;28;20034;-60
2021/10/01 15:24:25;;;;;;;7.53;1.90;;;;;;;;;;4932480;28;20940;-61
2021/10/01 15:26:50;;;;;;;3.80;2.00;;;;;;;;;;4915619;28;20129;-61
2021/10/01 15:29:18;;;;;;;4.72;1.95;;;;;;;;;;4906293;28;20416;-62
2021/10/01 15:31:46;;;;;;;6.65;1.88;;;;;;;;;;4930037;28;20042;-62
2021/10/01 15:34:11;;;;;;;5.95;1.83;;;;;;;;;;4946716;28;20043;-61
2021/10/01 15:36:40;;;;;;;9.68;2.40;;;;;;;;;;4948079;28;20039;-62
2021/10/01 15:39:08;;;;;;;12.40;2.40;;;;;;;;;;4950052;28;20042;-61
2021/10/01 15:41:33;;;;;;;10.48;2.60;;;;;;;;;;4930387;28;20086;-64
2021/10/01 15:44:01;;;;;;;9.82;2.25;;;;;;;;;;4932337;28;20104;-62
2021/10/01 15:46:27;;;;;;;8.88;2.10;;;;;;;;;;4920784;28;20058;-61
2021/10/01 15:48:52;;;;;;;10.50;2.28;;;;;;;;;;4946449;28;20166;-63
2021/10/01 15:51:17;;;;;;;9.57;2.45;;;;;;;;;;4935090;28;20035;-62
2021/10/01 15:53:47;;;;;;;3.17;2.17;;;;;;;;;;4930903;28;20035;-61
2021/10/01 15:56:12;;;;;;;12.05;2.63;;;;;;;;;;4925218;28;20058;-61
2021/10/01 15:58:40;;;;;;;7.90;2.17;;;;;;;;;;4946939;28;20164;-62
2021/10/01 16:01:08;;;;;;;8.38;2.55;;;;;;;;;;4933257;28;20054;-61
2021/10/01 16:03:33;;;;;;;11.10;2.55;;;;;;;;;;4933452;28;20105;-62
2021/10/01 16:06:01;;;;;;;9.27;2.63;;;;;;;;;;4938199;28;20035;-62
2021/10/01 16:08:31;;;;;;;6.25;2.70;;;;;;;;;;4951665;28;20053;-61
2021/10/01 16:11:06;;;;;;;4.30;2.13;;;;;;;;;;4948168;28;20034;-61
2021/10/01 16:13:34;;;;;;;8.70;2.70;;;;;;;;;;4924788;28;20039;-62
2021/10/01 16:16:02;;;;;;;5.05;2.42;;;;;;;;;;4934891;28;20550;-61
2021/10/01 16:18:28;;;;;;;7.90;2.42;;;;;;;;;;4933528;28;20053;-61
2021/10/01 16:20:54;;;;;;;6.15;2.70;;;;;;;;;;4965969;28;20039;-61
2021/10/01 16:23:22;;;;;;;8.98;2.85;;;;;;;;;;4934415;28;20100;-61
2021/10/01 16:25:50;;;;;;;7.32;2.60;;;;;;;;;;4917565;28;20031;-61
2021/10/01 16:28:15;;;;;;;9.10;2.25;;;;;;;;;;4917358;28;20027;-61
2021/10/01 16:30:46;;;;;;;5.53;2.42;;;;;;;;;;4948696;28;20121;-61